Pagrindinis puslapis
METAR-TAF:

METAR-TAF

Oro uostai :

Aniak, Aliaska, Jungtinės Amerikos Valstijos

platuma: 61-34-53N, ilguma: 159-32-34W, Aukštis: 27 m

Dabartinis oras

Ataskaita buvo paskelbta 23 minutes, ne 19:56 UTC
Vėjas 5 kt iš Rytų/Šiaurės Rytų
Temperatūra -13°C
Drėgmė 78%
Slėgis 1010 hPa
Matomumas: 14.5 km
Su prošvaistėmis ne aukštis 4100 ft
Apsiniaukę ne aukštis 5000 ft
sniegas

METAR: PANI 161956Z AUTO 06005KT 9SM -SN BKN041 OVC050 M13/M16 A2982 RMK AO2 SLP102 P0001 T11331161 FZRANO

Laikas: 11:19 (20:19 UTC)


TAF: trūkstamas

Orai ataskaitas ir orų prognozės (METAR, TAF).

turimą stotys yra geltonos ir raudonos taškus žemėlapyje.

Perkelti pele per norėdami pamatyti stoties vardą.

Tada spustelėkite, norėdami matyti oro stebėjimo ir prognozės.

Norėdami pakeisti žemėlapį: spustelėkite ant žalios mygtukų su juodo kryžiaus žemyn,; žalią mygtuką su brūkšneliu, jei norite nutolinti; arba žalių rodyklių gretimoms žemėlapius.


METAR-TAF: